5IS6 weather

Webster Heliport
Toulon, Illinois, United States

Public forecast

Using degrees Fahrenheit for public forecast. Weather courtesy of forecast.io.

Closest aviation weather report (METAR) to Webster Heliport

Closest report is Marshall County Airport, 21.1 nm (39.1 km) ESE. Retrieved 2020/07/03 19:15 UTC (11 minutes ago):

KC75 031915Z AUTO 04005KT 10SM CLR 31/16 A3002 RMK AO2 T03130163

Closest aviation forecast (TAF) to Webster Heliport

Closest forecast is General Wayne A. Downing Peoria International Airport, 27.3 nm (50.6 km) SSE. Retrieved 2020/07/03 18:22 UTC (1 hour ago):

TAF KPIA 031720Z 0318/0418 07006KT P6SM SCT060 FM040200 04004KT P6SM SKC